createdAt,value
2019-01-05T00:00:19.097Z,27.73
2019-01-05T00:03:13.245Z,27.67
2019-01-05T00:05:58.069Z,25.40
2019-01-05T00:08:44.282Z,25.48
2019-01-05T00:11:32.736Z,27.63
2019-01-05T00:14:27.762Z,23.00
2019-01-05T00:17:16.337Z,31.93
2019-01-05T00:20:28.473Z,25.83
2019-01-05T00:23:19.525Z,26.83
2019-01-05T00:26:13.272Z,22.90
2019-01-05T00:29:02.956Z,30.40
2019-01-05T00:32:00.383Z,25.73
2019-01-05T00:34:53.606Z,23.13
2019-01-05T00:37:41.155Z,24.05
2019-01-05T00:40:28.453Z,32.38
2019-01-05T00:43:07.628Z,28.23
2019-01-05T00:46:07.236Z,30.30
2019-01-05T00:48:55.507Z,28.23
2019-01-05T00:51:44.677Z,29.97
2019-01-05T00:54:32.443Z,25.00
2019-01-05T00:57:29.998Z,29.40
2019-01-05T01:00:19.664Z,29.90
2019-01-05T01:03:13.462Z,30.07
2019-01-05T01:05:54.161Z,28.03
2019-01-05T01:08:49.698Z,27.25
2019-01-05T01:11:40.886Z,31.00
2019-01-05T01:14:27.918Z,28.90
2019-01-05T01:17:14.847Z,26.30
2019-01-05T01:20:21.100Z,22.47
2019-01-05T01:23:09.612Z,32.23
2019-01-05T01:26:01.670Z,28.80
2019-01-05T01:28:48.720Z,29.53
2019-01-05T01:31:42.949Z,27.90
2019-01-05T01:34:40.390Z,28.47
2019-01-05T01:37:28.476Z,26.40
2019-01-05T01:40:22.498Z,34.38
2019-01-05T01:43:09.222Z,25.95
2019-01-05T01:45:55.670Z,28.97
2019-01-05T01:48:43.786Z,29.17
2019-01-05T01:51:31.674Z,29.13
2019-01-05T01:54:18.102Z,32.47
2019-01-05T01:57:04.593Z,27.60
2019-01-05T02:00:26.528Z,25.53
2019-01-05T02:03:19.267Z,24.60
2019-01-05T02:06:14.279Z,28.03
2019-01-05T02:09:14.547Z,26.23
2019-01-05T02:12:05.127Z,33.63
2019-01-05T02:14:53.961Z,27.30
2019-01-05T02:17:54.702Z,29.00
2019-01-05T02:21:12.665Z,31.07
2019-01-05T02:24:25.893Z,24.50
2019-01-05T02:28:00.049Z,36.57
2019-01-05T02:31:05.720Z,26.70
2019-01-05T02:34:39.463Z,28.17
2019-01-05T02:37:58.884Z,30.77
2019-01-05T02:41:11.975Z,32.67
2019-01-05T02:44:40.432Z,35.03
2019-01-05T02:48:22.432Z,41.43
2019-01-05T02:51:45.999Z,34.83
2019-01-05T02:55:03.041Z,26.27
2019-01-05T02:58:33.888Z,38.33
2019-01-05T03:02:13.721Z,34.67
2019-01-05T03:05:33.788Z,29.10
2019-01-05T03:08:53.176Z,51.53
2019-01-05T03:12:29.542Z,47.43
2019-01-05T03:16:01.021Z,41.08
2019-01-05T03:19:42.926Z,40.23
2019-01-05T03:23:14.793Z,44.47
2019-01-05T03:27:06.875Z,39.63
2019-01-05T03:30:59.038Z,40.40
2019-01-05T03:34:14.846Z,35.20
2019-01-05T03:37:37.730Z,43.70
2019-01-05T03:41:19.375Z,51.53
2019-01-05T03:44:47.049Z,46.97
2019-01-05T03:48:24.509Z,43.20
2019-01-05T03:51:34.988Z,50.63
2019-01-05T03:55:14.118Z,36.77
2019-01-05T03:58:49.653Z,37.05
2019-01-05T04:02:19.921Z,37.37
2019-01-05T04:05:32.845Z,35.10
2019-01-05T04:08:47.580Z,20.83
2019-01-05T04:12:24.103Z,36.13
2019-01-05T04:15:49.779Z,36.57
2019-01-05T04:19:20.420Z,34.10
2019-01-05T04:23:16.696Z,30.70
2019-01-05T04:26:57.021Z,34.87
2019-01-05T04:30:04.465Z,32.00
2019-01-05T04:33:45.852Z,33.67
2019-01-05T04:36:41.408Z,38.20
2019-01-05T04:39:57.352Z,45.13
2019-01-05T04:43:21.994Z,35.00
2019-01-05T04:47:11.294Z,35.77
2019-01-05T04:50:40.107Z,37.60
2019-01-05T04:54:29.306Z,35.23
2019-01-05T04:57:52.635Z,25.33
2019-01-05T05:01:31.103Z,35.03
2019-01-05T05:04:48.690Z,40.85
2019-01-05T05:08:37.955Z,33.83
2019-01-05T05:11:50.685Z,29.33
2019-01-05T05:15:25.391Z,31.12
2019-01-05T05:18:57.644Z,30.37
2019-01-05T05:22:19.320Z,27.47
2019-01-05T05:25:46.837Z,32.17
2019-01-05T05:29:19.789Z,27.00
2019-01-05T05:32:50.205Z,20.23
2019-01-05T05:36:07.283Z,21.07
2019-01-05T05:39:31.677Z,29.07
2019-01-05T05:42:59.344Z,21.23
2019-01-05T05:46:11.675Z,20.60
2019-01-05T05:49:39.611Z,28.30
2019-01-05T05:53:10.326Z,26.53
2019-01-05T05:56:22.349Z,26.30
2019-01-05T06:00:12.372Z,34.50
2019-01-05T06:03:40.573Z,16.50
2019-01-05T06:07:33.945Z,21.63
2019-01-05T06:11:18.012Z,25.03
2019-01-05T06:14:34.122Z,30.07
2019-01-05T06:18:14.320Z,21.43
2019-01-05T06:22:06.807Z,16.63
2019-01-05T06:25:33.751Z,23.63
2019-01-05T06:29:22.001Z,20.87
2019-01-05T06:32:46.629Z,17.37
2019-01-05T06:36:30.937Z,16.27
2019-01-05T06:39:52.877Z,16.93
2019-01-05T06:43:18.909Z,23.07
2019-01-05T06:46:57.653Z,17.50
2019-01-05T06:50:37.414Z,17.80
2019-01-05T06:54:01.920Z,23.43
2019-01-05T06:57:32.333Z,20.10
2019-01-05T07:01:06.001Z,21.10
2019-01-05T07:04:35.539Z,17.27
2019-01-05T07:08:06.820Z,16.73
2019-01-05T07:11:33.862Z,15.38
2019-01-05T07:14:58.676Z,13.57
2019-01-05T07:18:21.894Z,13.60
2019-01-05T07:21:45.180Z,28.47
2019-01-05T07:24:50.508Z,28.70
2019-01-05T07:28:39.594Z,19.70
2019-01-05T07:31:49.363Z,20.17
2019-01-05T07:34:59.747Z,17.25
2019-01-05T07:38:21.397Z,14.67
2019-01-05T07:42:11.011Z,14.87
2019-01-05T07:45:33.194Z,11.38
2019-01-05T07:49:09.634Z,15.33
2019-01-05T07:52:34.168Z,11.10
2019-01-05T07:56:04.463Z,9.57
2019-01-05T07:59:21.965Z,11.77
2019-01-05T08:02:38.570Z,11.75
2019-01-05T08:06:16.012Z,11.97
2019-01-05T08:09:46.129Z,17.10
2019-01-05T08:13:12.560Z,7.67
2019-01-05T08:16:50.834Z,11.40
2019-01-05T08:20:37.167Z,4.73
2019-01-05T08:24:16.808Z,8.07
2019-01-05T08:28:13.074Z,7.97
2019-01-05T08:31:35.703Z,9.57
2019-01-05T08:35:00.211Z,6.87
2019-01-05T08:38:30.072Z,7.00
2019-01-05T08:41:56.677Z,5.30
2019-01-05T08:45:43.479Z,5.77
2019-01-05T08:49:19.804Z,5.43
2019-01-05T08:52:16.503Z,5.27
2019-01-05T08:56:04.958Z,4.83
2019-01-05T09:00:13.633Z,8.00
2019-01-05T09:03:26.727Z,6.22
2019-01-05T09:07:08.284Z,5.28
2019-01-05T09:11:01.377Z,5.90
2019-01-05T09:14:28.113Z,6.17
2019-01-05T09:18:13.740Z,12.23
2019-01-05T09:22:02.730Z,13.98
2019-01-05T09:25:26.558Z,6.40
2019-01-05T09:28:32.378Z,5.97
2019-01-05T09:32:11.532Z,11.80
2019-01-05T09:35:47.034Z,8.10
2019-01-05T09:39:12.041Z,5.23
2019-01-05T09:42:38.209Z,6.90
2019-01-05T09:46:20.634Z,5.70
2019-01-05T09:49:44.810Z,4.67
2019-01-05T09:53:22.836Z,7.15
2019-01-05T09:57:01.533Z,6.37
2019-01-05T10:00:31.667Z,4.83
2019-01-05T10:03:58.584Z,5.27
2019-01-05T10:07:21.282Z,7.73
2019-01-05T10:11:01.383Z,4.37
2019-01-05T10:14:18.789Z,6.30
2019-01-05T10:18:14.010Z,2.77
2019-01-05T10:21:44.701Z,4.87
2019-01-05T10:25:11.197Z,5.03
2019-01-05T10:28:47.325Z,3.40
2019-01-05T10:32:11.743Z,11.43
2019-01-05T10:35:51.745Z,5.23
2019-01-05T10:39:21.996Z,5.10
2019-01-05T10:42:42.289Z,3.53
2019-01-05T10:46:11.207Z,3.40
2019-01-05T10:49:42.149Z,3.03
2019-01-05T10:52:45.880Z,2.67
2019-01-05T10:56:21.621Z,2.80
2019-01-05T10:59:57.635Z,3.10
2019-01-05T11:03:27.979Z,1.83
2019-01-05T11:07:03.122Z,3.42
2019-01-05T11:11:02.768Z,1.83
2019-01-05T11:14:23.383Z,1.60
2019-01-05T11:17:35.273Z,2.92
2019-01-05T11:20:54.185Z,2.00
2019-01-05T11:24:13.182Z,4.23
2019-01-05T11:27:35.954Z,2.50
2019-01-05T11:31:12.088Z,4.17
2019-01-05T11:34:59.617Z,1.50
2019-01-05T11:38:33.297Z,2.10
2019-01-05T11:42:07.483Z,4.10
2019-01-05T11:45:27.975Z,2.30
2019-01-05T11:48:35.064Z,4.07
2019-01-05T11:52:25.894Z,3.73
2019-01-05T11:55:58.345Z,4.60
2019-01-05T11:59:38.589Z,4.27
2019-01-05T12:03:16.030Z,3.35
2019-01-05T12:06:43.132Z,2.80
2019-01-05T12:10:11.464Z,3.30
2019-01-05T12:13:31.188Z,4.03
2019-01-05T12:16:55.776Z,3.83
2019-01-05T12:20:37.187Z,2.60
2019-01-05T12:24:15.249Z,5.20
2019-01-05T12:27:40.826Z,3.30
2019-01-05T12:30:54.272Z,3.67
2019-01-05T12:34:11.218Z,3.20
2019-01-05T12:37:30.816Z,3.50
2019-01-05T12:40:57.603Z,3.55
2019-01-05T12:44:31.368Z,4.33
2019-01-05T12:48:13.903Z,6.30
2019-01-05T12:51:37.761Z,4.83
2019-01-05T12:54:54.781Z,6.40
2019-01-05T12:58:21.128Z,5.13
2019-01-05T13:01:49.599Z,6.40
2019-01-05T13:05:06.985Z,6.65
2019-01-05T13:08:26.888Z,7.83
2019-01-05T13:11:52.364Z,8.15
2019-01-05T13:15:34.236Z,10.37
2019-01-05T13:19:20.250Z,10.47
2019-01-05T13:22:41.282Z,11.00
2019-01-05T13:26:08.760Z,13.43
2019-01-05T13:29:21.979Z,10.20
2019-01-05T13:32:58.247Z,9.13
2019-01-05T13:36:38.053Z,10.93
2019-01-05T13:40:06.594Z,9.70
2019-01-05T13:43:39.584Z,10.03
2019-01-05T13:47:18.601Z,17.63
2019-01-05T13:50:30.758Z,11.03
2019-01-05T13:53:58.858Z,9.33
2019-01-05T13:56:58.310Z,7.27
2019-01-05T13:59:52.358Z,14.63
2019-01-05T14:02:39.982Z,11.18
2019-01-05T14:05:26.590Z,12.60
2019-01-05T14:08:13.273Z,10.60
2019-01-05T14:11:02.015Z,11.87
2019-01-05T14:13:48.773Z,9.23
2019-01-05T14:16:35.477Z,10.20
2019-01-05T14:19:23.375Z,11.20
2019-01-05T14:22:11.617Z,14.65
2019-01-05T14:25:01.046Z,9.00
2019-01-05T14:27:49.030Z,14.03
2019-01-05T14:30:39.854Z,12.90
2019-01-05T14:33:26.501Z,9.90
2019-01-05T14:36:15.100Z,13.70
2019-01-05T14:39:15.770Z,8.10
2019-01-05T14:41:59.913Z,8.10
2019-01-05T14:44:57.136Z,17.63
2019-01-05T14:47:44.118Z,11.20
2019-01-05T14:50:30.751Z,12.13
2019-01-05T14:53:17.253Z,23.10
2019-01-05T14:56:00.979Z,33.50
2019-01-05T14:58:47.494Z,12.57
2019-01-05T15:01:48.428Z,9.07
2019-01-05T15:04:48.666Z,15.63
2019-01-05T15:07:25.520Z,16.80
2019-01-05T15:10:16.533Z,12.33
2019-01-05T15:12:56.026Z,14.43
2019-01-05T15:15:49.883Z,14.70
2019-01-05T15:18:34.872Z,11.43
2019-01-05T15:21:15.200Z,17.10
2019-01-05T15:24:01.727Z,11.27
2019-01-05T15:26:48.285Z,16.50
2019-01-05T15:29:36.222Z,15.60
2019-01-05T15:32:39.252Z,18.77
2019-01-05T15:35:30.025Z,15.57
2019-01-05T15:38:18.704Z,14.30
2019-01-05T15:41:06.553Z,16.43
2019-01-05T15:44:00.570Z,18.90
2019-01-05T15:46:57.481Z,16.95
2019-01-05T15:49:44.329Z,21.30
2019-01-05T15:52:26.750Z,19.00
2019-01-05T15:55:11.960Z,16.93
2019-01-05T15:58:08.937Z,18.12
2019-01-05T16:00:55.549Z,16.90
2019-01-05T16:03:43.569Z,19.20
2019-01-05T16:06:43.596Z,24.03
2019-01-05T16:09:34.431Z,15.17
2019-01-05T16:12:21.258Z,19.37
2019-01-05T16:15:04.295Z,23.77
2019-01-05T16:17:50.764Z,20.83
2019-01-05T16:20:37.331Z,18.67
2019-01-05T16:23:24.156Z,23.93
2019-01-05T16:26:12.521Z,18.27
2019-01-05T16:29:02.909Z,26.27
2019-01-05T16:31:50.821Z,17.37
2019-01-05T16:34:37.205Z,11.57
2019-01-05T16:37:23.770Z,35.77
2019-01-05T16:40:18.713Z,22.75
2019-01-05T16:43:11.276Z,17.62
2019-01-05T16:45:54.831Z,15.87
2019-01-05T16:48:41.332Z,24.13
2019-01-05T16:51:28.132Z,22.98
2019-01-05T16:54:15.182Z,17.10
2019-01-05T16:57:01.962Z,16.10
2019-01-05T17:00:08.329Z,18.40
2019-01-05T17:02:54.866Z,14.27
2019-01-05T17:05:41.783Z,18.47
2019-01-05T17:08:28.388Z,22.17
2019-01-05T17:11:16.216Z,14.60
2019-01-05T17:14:19.540Z,12.03
2019-01-05T17:17:16.682Z,17.97
2019-01-05T17:19:54.451Z,22.40
2019-01-05T17:22:41.500Z,11.60
2019-01-05T17:25:44.421Z,18.03
2019-01-05T17:28:45.425Z,16.50
2019-01-05T17:31:31.913Z,17.80
2019-01-05T17:34:19.833Z,17.00
2019-01-05T17:37:06.363Z,13.03
2019-01-05T17:39:53.267Z,15.17
2019-01-05T17:42:53.352Z,14.95
2019-01-05T17:45:34.646Z,17.37
2019-01-05T17:48:31.914Z,12.68
2019-01-05T17:51:20.991Z,14.57
2019-01-05T17:54:07.995Z,16.50
2019-01-05T17:56:53.198Z,19.73
2019-01-05T17:59:34.077Z,14.67
2019-01-05T18:02:21.893Z,15.43
2019-01-05T18:05:12.429Z,9.40
2019-01-05T18:08:03.501Z,21.48
2019-01-05T18:11:00.271Z,23.23
2019-01-05T18:13:48.124Z,14.57
2019-01-05T18:16:46.979Z,20.40
2019-01-05T18:19:28.677Z,22.22
2019-01-05T18:22:15.407Z,24.50
2019-01-05T18:25:09.471Z,11.50
2019-01-05T18:28:06.346Z,20.30
2019-01-05T18:30:49.658Z,24.87
2019-01-05T18:33:28.345Z,21.00
2019-01-05T18:36:09.316Z,15.23
2019-01-05T18:39:03.445Z,16.97
2019-01-05T18:41:51.032Z,25.95
2019-01-05T18:44:32.288Z,20.20
2019-01-05T18:47:18.770Z,13.62
2019-01-05T18:49:59.744Z,14.53
2019-01-05T18:52:51.186Z,17.60
2019-01-05T18:55:36.890Z,15.97
2019-01-05T18:58:39.798Z,13.50
2019-01-05T19:01:26.584Z,15.00
2019-01-05T19:04:26.846Z,15.90
2019-01-05T19:07:13.563Z,16.90
2019-01-05T19:09:52.863Z,15.70
2019-01-05T19:12:37.286Z,19.10
2019-01-05T19:15:37.603Z,16.50
2019-01-05T19:18:20.106Z,21.70
2019-01-05T19:21:07.882Z,15.20
2019-01-05T19:23:58.308Z,20.65
2019-01-05T19:26:48.957Z,18.00
2019-01-05T19:29:45.775Z,22.47
2019-01-05T19:32:36.771Z,14.67
2019-01-05T19:35:19.980Z,18.53
2019-01-05T19:38:07.943Z,16.10
2019-01-05T19:40:54.683Z,15.77
2019-01-05T19:43:41.104Z,17.27
2019-01-05T19:46:42.806Z,21.52
2019-01-05T19:49:25.127Z,14.90
2019-01-05T19:52:25.031Z,17.83
2019-01-05T19:55:11.478Z,14.43
2019-01-05T19:57:58.245Z,13.88
2019-01-05T20:00:58.201Z,12.63
2019-01-05T20:03:49.202Z,19.73
2019-01-05T20:06:49.492Z,21.57
2019-01-05T20:09:36.172Z,16.67
2019-01-05T20:12:36.481Z,15.38
2019-01-05T20:15:27.944Z,18.17
2019-01-05T20:18:18.580Z,16.07
2019-01-05T20:21:14.777Z,18.32
2019-01-05T20:24:11.706Z,14.28
2019-01-05T20:26:58.499Z,12.93
2019-01-05T20:29:58.660Z,23.43
2019-01-05T20:32:42.928Z,12.47
2019-01-05T20:35:29.622Z,14.53
2019-01-05T20:38:16.142Z,11.83
2019-01-05T20:41:20.816Z,17.70
2019-01-05T20:44:08.623Z,14.05
2019-01-05T20:46:59.223Z,12.77
2019-01-05T20:49:59.346Z,17.63
2019-01-05T20:52:45.926Z,16.40
2019-01-05T20:55:48.913Z,15.77
2019-01-05T20:58:35.466Z,14.93
2019-01-05T21:01:27.658Z,13.77
2019-01-05T21:04:14.601Z,11.50
2019-01-05T21:07:08.469Z,16.30
2019-01-05T21:09:59.025Z,17.43
2019-01-05T21:12:52.105Z,17.57
2019-01-05T21:15:38.959Z,14.20
2019-01-05T21:18:39.897Z,15.90
2019-01-05T21:21:23.020Z,16.70
2019-01-05T21:24:16.633Z,18.30
2019-01-05T21:27:03.077Z,12.10
2019-01-05T21:29:50.857Z,15.60
2019-01-05T21:32:36.587Z,16.73
2019-01-05T21:35:18.462Z,13.50
2019-01-05T21:38:05.132Z,13.17
2019-01-05T21:40:51.518Z,21.63
2019-01-05T21:43:32.299Z,12.87
2019-01-05T21:46:15.948Z,16.57
2019-01-05T21:49:03.774Z,14.47
2019-01-05T21:51:50.288Z,14.30
2019-01-05T21:54:56.413Z,12.33
2019-01-05T21:58:02.784Z,18.73
2019-01-05T22:02:56.388Z,12.80
2019-01-05T22:05:43.136Z,10.58
2019-01-05T22:08:30.097Z,14.40
2019-01-05T22:11:29.190Z,10.40
2019-01-05T22:14:15.714Z,13.47
2019-01-05T22:17:02.268Z,13.03
2019-01-05T22:20:08.249Z,9.50
2019-01-05T22:22:54.535Z,11.17
2019-01-05T22:25:42.416Z,9.93
2019-01-05T22:28:49.176Z,19.50
2019-01-05T22:31:42.436Z,20.52
2019-01-05T22:34:29.635Z,24.57
2019-01-05T22:37:22.164Z,15.60
2019-01-05T22:40:09.987Z,14.53
2019-01-05T22:43:10.877Z,16.60
2019-01-05T22:45:58.760Z,15.63
2019-01-05T22:48:55.675Z,18.00
2019-01-05T22:51:42.201Z,22.55
2019-01-05T22:54:28.669Z,15.33
2019-01-05T22:57:15.466Z,30.30
2019-01-05T23:00:20.815Z,20.23
2019-01-05T23:03:12.654Z,18.92
2019-01-05T23:05:58.542Z,18.27
2019-01-05T23:08:45.196Z,23.00
2019-01-05T23:11:33.324Z,20.83
2019-01-05T23:14:19.026Z,21.07
2019-01-05T23:17:12.781Z,15.20
2019-01-05T23:20:00.614Z,15.50
2019-01-05T23:22:51.630Z,15.43
2019-01-05T23:25:31.447Z,15.00
2019-01-05T23:28:14.382Z,21.40
2019-01-05T23:31:01.425Z,15.95
2019-01-05T23:33:45.679Z,17.20
2019-01-05T23:36:36.875Z,16.60
2019-01-05T23:39:24.396Z,13.20
2019-01-05T23:42:11.114Z,13.40
2019-01-05T23:45:02.030Z,14.67
2019-01-05T23:47:49.933Z,16.27
2019-01-05T23:50:32.565Z,19.60
2019-01-05T23:53:14.969Z,16.60
2019-01-05T23:56:06.351Z,21.75
2019-01-05T23:59:01.753Z,12.73
